Time;durP1;ratioP1;P1;durP2;ratioP2;P2;SDS_P1;SDS_P2;PMS_P1;PMS_P2;Temp;Humidity;BMP_temperature;BMP_pressure;BME280_temperature;BME280_humidity;BME280_pressure;Samples;Min_cycle;Max_cycle;Signal;HPM_P1;HPM_P2
2022/05/09 00:02:00;;;;;;;3.70;2.60;;;;;;;19.24;47.39;99806.02;229163;1232;138998;-61
2022/05/09 00:07:12;;;;;;;5.10;2.60;;;;;;;19.14;47.62;99800.10;229247;1232;139401;-61
2022/05/09 00:12:17;;;;;;;2.90;2.50;;;;;;;19.12;47.60;99800.13;229484;1231;139116;-61
2022/05/09 00:17:31;;;;;;;4.30;2.50;;;;;;;19.11;47.68;99799.17;230168;1232;138504;-58
2022/05/09 00:22:48;;;;;;;5.30;2.60;;;;;;;19.10;47.93;99802.11;229336;1232;138676;-60
2022/05/09 00:27:56;;;;;;;3.70;2.50;;;;;;;19.00;48.41;99800.64;229805;1232;139338;-60
2022/05/09 00:33:02;;;;;;;5.70;3.10;;;;;;;18.84;48.97;99797.89;229451;1232;139735;-58
2022/05/09 00:38:07;;;;;;;6.70;2.70;;;;;;;18.66;49.83;99812.09;230805;1231;138912;-62
2022/05/09 00:43:37;;;;;;;3.20;2.50;;;;;;;18.45;50.42;99828.39;229481;1232;138553;-60
2022/05/09 00:48:45;;;;;;;5.60;2.60;;;;;;;18.24;50.74;99829.76;229207;1232;139868;-59
2022/05/09 00:53:57;;;;;;;4.70;2.80;;;;;;;18.04;51.47;99835.66;230047;1232;138929;-57
2022/05/09 00:59:06;;;;;;;3.10;2.40;;;;;;;17.88;52.03;99840.38;230015;1232;138629;-60
2022/05/09 01:04:16;;;;;;;4.60;2.50;;;;;;;17.79;52.39;99844.28;230117;1232;139930;-58
2022/05/09 01:09:21;;;;;;;3.90;2.50;;;;;;;17.76;52.86;99847.23;229483;1232;139162;-62
2022/05/09 01:14:39;;;;;;;3.30;2.40;;;;;;;17.76;53.26;99850.25;229969;1231;138507;-58
2022/05/09 01:19:44;;;;;;;4.50;3.10;;;;;;;17.73;53.51;99848.54;229587;1232;141002;-57
2022/05/09 01:24:47;;;;;;;3.60;2.60;;;;;;;17.68;53.66;99853.22;230156;1232;143091;-61
2022/05/09 01:29:59;;;;;;;6.20;3.00;;;;;;;17.62;53.87;99851.15;229425;1232;140369;-59
2022/05/09 01:35:33;;;;;;;5.80;2.90;;;;;;;17.56;54.30;99848.04;229059;1231;138593;-59
2022/05/09 01:40:37;;;;;;;5.00;3.00;;;;;;;17.52;54.41;99846.73;229991;1232;138894;-59
2022/05/09 01:45:43;;;;;;;4.40;2.90;;;;;;;17.48;54.52;99848.34;230165;1232;138788;-61
2022/05/09 01:50:50;;;;;;;4.70;2.80;;;;;;;17.45;54.81;99846.75;229579;1231;138937;-58
2022/05/09 01:56:01;;;;;;;5.30;2.80;;;;;;;17.46;54.83;99847.55;230940;1232;140152;-56
2022/05/09 02:01:08;;;;;;;6.90;3.20;;;;;;;17.47;55.00;99842.30;230414;1233;139146;-61
2022/05/09 02:06:21;;;;;;;4.90;3.20;;;;;;;17.52;55.22;99850.16;230089;1232;139078;-59
2022/05/09 02:11:30;;;;;;;4.80;3.20;;;;;;;17.57;55.41;99849.64;230182;1232;138490;-61
2022/05/09 02:16:36;;;;;;;4.80;3.00;;;;;;;17.59;55.44;99853.75;229464;1232;139056;-63
2022/05/09 02:21:49;;;;;;;4.20;3.10;;;;;;;17.61;55.64;99860.06;229505;1232;139484;-60
2022/05/09 02:26:59;;;;;;;5.30;3.60;;;;;;;17.62;55.76;99860.16;230053;1232;138902;-62
2022/05/09 02:32:05;;;;;;;6.60;3.40;;;;;;;17.62;55.72;99866.04;229569;1232;138521;-61
2022/05/09 02:37:09;;;;;;;5.70;3.30;;;;;;;17.61;55.94;99872.78;229988;1233;138368;-62
2022/05/09 02:42:12;;;;;;;3.70;3.00;;;;;;;17.65;56.00;99879.84;230735;1232;139530;-62
2022/05/09 02:47:17;;;;;;;4.50;3.20;;;;;;;17.69;56.19;99881.33;230333;1231;139800;-63
2022/05/09 02:52:25;;;;;;;5.00;3.60;;;;;;;17.69;56.21;99887.25;229879;1232;139247;-63
2022/05/09 02:57:34;;;;;;;4.90;3.90;;;;;;;17.67;56.05;99885.92;229509;1232;138458;-63
2022/05/09 03:02:39;;;;;;;6.60;3.90;;;;;;;17.65;55.71;99885.73;229325;1232;139233;-63
2022/05/09 03:07:49;;;;;;;5.40;3.60;;;;;;;17.62;55.67;99886.13;230693;1232;139735;-63
2022/05/09 03:12:59;;;;;;;6.10;3.80;;;;;;;17.57;55.62;99889.59;229694;1232;138859;-65
2022/05/09 03:18:04;;;;;;;4.10;3.70;;;;;;;17.53;55.59;99894.75;229585;1231;138282;-64
2022/05/09 03:23:18;;;;;;;24.30;21.10;;;;;;;17.46;55.73;99898.37;230020;1232;141090;-59
2022/05/09 03:28:27;;;;;;;6.60;4.60;;;;;;;17.41;55.94;99897.64;229338;1232;139212;-61
2022/05/09 03:33:32;;;;;;;5.00;4.00;;;;;;;17.35;55.82;99903.33;230026;1232;138757;-61
2022/05/09 03:38:37;;;;;;;6.30;3.90;;;;;;;17.28;55.82;99901.39;230501;1232;139761;-58
2022/05/09 03:43:41;;;;;;;25.30;18.90;;;;;;;17.22;55.93;99899.67;230199;1232;139974;-58
2022/05/09 03:48:46;;;;;;;7.00;4.80;;;;;;;17.22;55.87;99905.70;229730;1232;139321;-60
2022/05/09 03:53:54;;;;;;;7.60;3.90;;;;;;;17.26;55.73;99905.98;229363;1232;139510;-58
2022/05/09 03:58:58;;;;;;;4.60;3.80;;;;;;;17.21;55.63;99904.02;229998;1232;139184;-60
2022/05/09 04:04:02;;;;;;;5.40;3.90;;;;;;;17.12;55.66;99902.90;230668;1232;139828;-61
2022/05/09 04:09:06;;;;;;;6.20;4.40;;;;;;;17.01;55.92;99907.66;230377;1232;138689;-61
2022/05/09 04:14:13;;;;;;;79.80;66.00;;;;;;;16.97;56.26;99912.44;229139;1232;138869;-60
2022/05/09 04:19:20;;;;;;;9.40;7.30;;;;;;;17.04;56.19;99920.33;229311;1232;140621;-60
2022/05/09 04:24:23;;;;;;;7.20;4.70;;;;;;;17.17;55.97;99922.45;229387;1231;139483;-58
2022/05/09 04:29:30;;;;;;;8.10;4.30;;;;;;;17.24;55.71;99927.13;229065;1232;138506;-57
2022/05/09 04:34:33;;;;;;;7.40;4.30;;;;;;;17.23;55.55;99929.55;229438;1232;140350;-61
2022/05/09 04:39:40;;;;;;;7.00;4.10;;;;;;;17.19;55.57;99933.07;229370;1232;138860;-60
2022/05/09 04:44:44;;;;;;;4.10;3.50;;;;;;;17.23;55.49;99930.40;229399;1232;138405;-61
2022/05/09 04:49:52;;;;;;;9.70;4.20;;;;;;;17.26;55.25;99934.11;229366;1232;138833;-60
2022/05/09 04:54:58;;;;;;;7.00;3.70;;;;;;;17.30;55.20;99934.05;229650;1232;139711;-61
2022/05/09 05:00:12;;;;;;;6.90;3.80;;;;;;;17.30;55.05;99940.15;229637;1232;138571;-61
2022/05/09 05:05:20;;;;;;;7.20;3.80;;;;;;;17.31;54.81;99943.25;230055;1232;138723;-61
2022/05/09 05:10:31;;;;;;;6.40;4.10;;;;;;;17.35;54.96;99947.09;229635;1232;138581;-60
2022/05/09 05:15:37;;;;;;;4.70;3.70;;;;;;;17.40;54.73;99947.23;228595;1233;138786;-59
2022/05/09 05:20:49;;;;;;;7.50;3.90;;;;;;;17.49;54.74;99951.40;230264;1232;138982;-59
2022/05/09 05:25:53;;;;;;;7.00;4.30;;;;;;;17.60;54.57;99951.27;229348;1231;141909;-60
2022/05/09 05:31:18;;;;;;;6.40;3.70;;;;;;;17.72;54.68;99956.11;228779;1231;139711;-57
2022/05/09 05:36:22;;;;;;;8.00;3.50;;;;;;;17.81;54.62;99962.08;229511;1233;140491;-58
2022/05/09 05:41:38;;;;;;;8.60;4.00;;;;;;;17.97;54.44;99963.56;230197;1232;138471;-59
2022/05/09 05:46:48;;;;;;;8.50;4.00;;;;;;;18.10;54.33;99966.11;229342;1233;140529;-59
2022/05/09 05:51:54;;;;;;;12.10;4.20;;;;;;;18.19;53.93;99970.58;229600;1232;138722;-60
2022/05/09 05:57:18;;;;;;;12.40;4.20;;;;;;;18.21;53.80;99975.65;229868;1232;139621;-58
2022/05/09 06:02:22;;;;;;;11.30;4.40;;;;;;;18.22;53.80;99976.48;230677;1232;138554;-60
2022/05/09 06:07:26;;;;;;;20.70;4.50;;;;;;;18.26;53.58;99986.77;230071;1233;139036;-61
2022/05/09 06:12:30;;;;;;;5.70;3.70;;;;;;;18.27;53.28;99983.08;229957;1232;139297;-61
2022/05/09 06:17:35;;;;;;;7.60;3.60;;;;;;;18.30;52.98;99984.86;230614;1232;139865;-61
2022/05/09 06:22:40;;;;;;;7.00;4.00;;;;;;;18.33;52.97;99990.88;230464;1231;139439;-60
2022/05/09 06:27:48;;;;;;;6.70;4.30;;;;;;;18.39;52.76;99991.66;230236;1232;141024;-61
2022/05/09 06:32:52;;;;;;;6.20;3.80;;;;;;;18.45;52.92;99999.85;229784;1231;138357;-59
2022/05/09 06:38:01;;;;;;;9.40;4.80;;;;;;;18.48;52.63;99998.00;230201;1232;139148;-60
2022/05/09 06:43:06;;;;;;;6.50;3.90;;;;;;;18.51;52.37;99999.13;229909;1232;138878;-59
2022/05/09 06:48:12;;;;;;;11.80;3.90;;;;;;;18.55;52.38;99999.92;229281;1232;140474;-60
2022/05/09 06:53:20;;;;;;;6.00;4.40;;;;;;;18.65;52.31;100001.45;229092;1233;138805;-59
2022/05/09 06:58:41;;;;;;;10.00;4.50;;;;;;;18.79;52.09;99996.09;229502;1232;139102;-59
2022/05/09 07:03:45;;;;;;;9.70;4.50;;;;;;;18.90;52.02;99993.18;230571;1233;140081;-64
2022/05/09 07:08:48;;;;;;;9.00;4.70;;;;;;;18.97;52.07;99999.78;230213;1233;140353;-62
2022/05/09 07:13:55;;;;;;;7.90;4.70;;;;;;;19.03;51.74;99997.55;229161;1232;139257;-60
2022/05/09 07:18:59;;;;;;;7.40;4.80;;;;;;;19.08;51.81;100001.23;229346;1232;139383;-59
2022/05/09 07:24:04;;;;;;;9.30;4.80;;;;;;;19.12;51.84;100004.86;229375;1232;139344;-64
2022/05/09 07:29:09;;;;;;;9.20;4.30;;;;;;;19.20;51.34;100006.41;230631;1232;138531;-63
2022/05/09 07:34:12;;;;;;;6.40;4.10;;;;;;;19.29;51.32;100007.64;229753;1232;140254;-60
2022/05/09 07:39:18;;;;;;;10.20;4.40;;;;;;;19.32;50.76;100009.33;229778;1232;138516;-60
2022/05/09 07:44:33;;;;;;;11.30;4.80;;;;;;;19.40;50.90;100009.79;230404;1232;139737;-58
2022/05/09 07:49:38;;;;;;;11.00;4.40;;;;;;;19.51;50.67;100007.93;229624;1233;139098;-59
2022/05/09 07:54:53;;;;;;;7.70;4.30;;;;;;;19.62;50.55;100009.88;229396;1232;139585;-58
2022/05/09 07:59:59;;;;;;;8.80;3.20;;;;;;;19.69;50.01;100010.62;229586;1233;142919;-62
2022/05/09 08:05:11;;;;;;;10.00;3.50;;;;;;;19.79;49.72;100014.23;229758;1232;139659;-59
2022/05/09 08:10:18;;;;;;;6.90;4.20;;;;;;;19.86;49.50;100013.63;229953;1232;140494;-59
2022/05/09 08:15:26;;;;;;;6.90;3.20;;;;;;;19.96;49.22;100012.27;230113;1232;138570;-60
2022/05/09 08:20:35;;;;;;;9.50;3.30;;;;;;;20.01;48.92;100012.19;230261;1232;140025;-58
2022/05/09 08:25:42;;;;;;;7.00;3.50;;;;;;;20.07;48.34;100015.80;230265;1232;138989;-60
2022/05/09 08:30:49;;;;;;;6.10;3.60;;;;;;;20.14;48.12;100016.64;229667;1231;140043;-60
2022/05/09 08:36:02;;;;;;;94.00;75.80;;;;;;;20.26;48.12;100015.45;231019;1232;138700;-59
2022/05/09 08:41:19;;;;;;;7.60;5.00;;;;;;;20.37;48.09;100013.23;229573;1232;139458;-59
2022/05/09 08:46:43;;;;;;;8.20;3.60;;;;;;;20.49;47.83;100013.29;229547;1233;139522;-59
2022/05/09 08:52:08;;;;;;;5.20;3.10;;;;;;;20.58;47.48;100013.76;228186;1233;138618;-61
2022/05/09 08:57:48;;;;;;;5.40;3.10;;;;;;;20.82;47.30;100018.33;229350;1232;138839;-58
2022/05/09 09:03:24;;;;;;;8.50;2.90;;;;;;;21.07;46.74;100024.58;228714;1233;139583;-60
2022/05/09 09:08:45;;;;;;;45.30;32.40;;;;;;;21.21;46.24;100025.02;228966;1233;138848;-61
2022/05/09 09:14:20;;;;;;;6.50;3.30;;;;;;;21.34;45.71;100023.92;229294;1233;139437;-59
2022/05/09 09:19:59;;;;;;;8.70;2.50;;;;;;;21.40;45.32;100026.40;229682;1233;139935;-60
2022/05/09 09:25:10;;;;;;;5.20;2.30;;;;;;;21.55;45.10;100024.55;228634;1233;138670;-59
2022/05/09 09:30:24;;;;;;;6.00;2.50;;;;;;;21.59;44.42;100022.59;229666;1233;139362;-61
2022/05/09 09:35:49;;;;;;;5.20;2.60;;;;;;;21.52;44.14;100023.73;230633;1232;139648;-62
2022/05/09 09:40:55;;;;;;;7.00;2.90;;;;;;;21.43;43.99;100025.81;230174;1232;139324;-61
2022/05/09 09:46:04;;;;;;;4.20;2.20;;;;;;;21.35;43.85;100024.38;229956;1232;139766;-63
2022/05/09 09:51:14;;;;;;;6.80;2.50;;;;;;;21.38;43.68;100021.39;230375;1232;138373;-63
2022/05/09 09:56:21;;;;;;;4.20;2.20;;;;;;;21.63;43.77;100018.95;228827;1233;138567;-61
2022/05/09 10:01:34;;;;;;;7.90;2.30;;;;;;;21.97;43.42;100011.21;229187;1232;139064;-62
2022/05/09 10:07:07;;;;;;;6.80;2.10;;;;;;;22.19;42.69;100011.02;229332;1232;144934;-63
2022/05/09 10:12:22;;;;;;;4.10;2.00;;;;;;;22.35;42.37;100009.95;229246;1232;138550;-59
2022/05/09 10:17:32;;;;;;;11.70;2.50;;;;;;;22.49;42.03;100009.00;229791;1232;140055;-60
2022/05/09 10:28:22;;;;;;;6.10;2.20;;;;;;;23.12;41.61;99993.69;229763;1233;138765;-61
2022/05/09 10:34:19;;;;;;;4.50;2.30;;;;;;;23.02;40.61;99991.56;229691;1232;141368;-60
2022/05/09 10:39:42;;;;;;;5.50;2.10;;;;;;;23.06;40.73;99990.27;229284;1231;139483;-59
2022/05/09 10:45:02;;;;;;;13.70;6.30;;;;;;;23.33;41.02;99991.88;229942;1232;138437;-58
2022/05/09 10:50:22;;;;;;;8.50;3.80;;;;;;;23.41;41.25;99994.18;229163;1232;139562;-59
2022/05/09 10:55:47;;;;;;;6.90;3.00;;;;;;;23.28;40.55;99992.40;229331;1231;138622;-57
2022/05/09 11:01:07;;;;;;;4.90;2.50;;;;;;;23.17;40.39;99991.39;228901;1232;139478;-57
2022/05/09 11:06:17;;;;;;;6.00;2.70;;;;;;;23.28;40.44;99984.65;230687;1232;138812;-58
2022/05/09 11:11:53;;;;;;;4.90;2.40;;;;;;;23.34;39.97;99978.42;229044;1232;139198;-57
2022/05/09 11:17:17;;;;;;;6.40;2.30;;;;;;;23.34;39.61;99971.99;229754;1232;138917;-57
2022/05/09 11:22:20;;;;;;;7.30;2.30;;;;;;;23.19;39.35;99974.27;229787;1232;139675;-58
2022/05/09 11:27:26;;;;;;;3.50;1.90;;;;;;;23.32;39.38;99969.05;229179;1232;138568;-58
2022/05/09 11:32:46;;;;;;;6.70;2.10;;;;;;;23.68;39.29;99959.25;229862;1233;139805;-59
2022/05/09 11:38:27;;;;;;;4.70;1.90;;;;;;;23.79;38.78;99957.77;230962;1232;139156;-57
2022/05/09 11:43:59;;;;;;;7.50;2.80;;;;;;;23.74;38.32;99950.63;230491;1232;139042;-58
2022/05/09 11:49:21;;;;;;;5.20;2.30;;;;;;;23.62;38.22;99942.09;229858;1232;139945;-60
2022/05/09 11:55:12;;;;;;;5.10;1.80;;;;;;;23.60;38.16;99939.92;228984;1235;138782;-59
2022/05/09 12:00:28;;;;;;;4.00;2.10;;;;;;;23.56;37.99;99936.88;228258;1235;142415;-59
2022/05/09 12:05:39;;;;;;;5.10;2.10;;;;;;;23.58;37.87;99939.75;229383;1233;139309;-57
2022/05/09 12:10:49;;;;;;;6.80;2.00;;;;;;;23.47;37.46;99935.27;229162;1233;140193;-57
2022/05/09 12:15:56;;;;;;;5.70;1.80;;;;;;;23.40;37.46;99927.98;228853;1233;138488;-58
2022/05/09 12:21:15;;;;;;;5.20;1.70;;;;;;;23.67;37.14;99923.13;229466;1232;138539;-59
2022/05/09 12:26:35;;;;;;;3.40;1.60;;;;;;;24.13;36.97;99914.66;229469;1232;140107;-59
2022/05/09 12:31:50;;;;;;;6.90;2.30;;;;;;;24.38;36.56;99911.14;229742;1233;138733;-58
2022/05/09 12:36:57;;;;;;;7.50;2.40;;;;;;;24.66;36.31;99905.42;228977;1232;138664;-59
2022/05/09 12:42:05;;;;;;;7.40;2.20;;;;;;;25.01;35.90;99902.54;229277;1232;138853;-59
2022/05/09 12:47:14;;;;;;;4.50;1.90;;;;;;;25.33;35.72;99893.99;229340;1232;140331;-61
2022/05/09 12:52:49;;;;;;;4.30;2.10;;;;;;;25.65;35.46;99888.13;228846;1232;146182;-60
2022/05/09 12:57:54;;;;;;;4.70;2.00;;;;;;;25.93;34.72;99887.76;229436;1232;139329;-60
2022/05/09 13:03:08;;;;;;;4.60;1.80;;;;;;;26.16;34.45;99882.52;229478;1232;138286;-58
2022/05/09 13:08:18;;;;;;;4.50;2.00;;;;;;;26.28;34.13;99881.81;229077;1232;138748;-59
2022/05/09 13:13:39;;;;;;;7.80;1.90;;;;;;;26.36;33.83;99881.48;229400;1232;140831;-58
2022/05/09 13:18:47;;;;;;;5.40;2.20;;;;;;;26.05;33.39;99876.16;230231;1232;138531;-60
2022/05/09 13:23:52;;;;;;;4.20;2.00;;;;;;;25.74;33.10;99864.55;230082;1232;139289;-60
2022/05/09 13:29:09;;;;;;;34.80;22.00;;;;;;;25.36;32.81;99857.85;229446;1232;139177;-59
2022/05/09 13:34:23;;;;;;;10.80;6.50;;;;;;;25.06;33.39;99861.02;229218;1231;139537;-60
2022/05/09 13:39:37;;;;;;;7.60;3.20;;;;;;;24.87;33.57;99854.87;230795;1232;138858;-59
2022/05/09 13:44:53;;;;;;;5.00;2.20;;;;;;;24.99;33.89;99847.45;229457;1231;140229;-59
2022/05/09 13:49:58;;;;;;;4.20;2.10;;;;;;;25.22;33.80;99848.93;229087;1232;140482;-59
2022/05/09 13:55:10;;;;;;;7.90;2.30;;;;;;;25.53;33.73;99839.27;230438;1231;139908;-60
2022/05/09 14:00:20;;;;;;;5.00;2.00;;;;;;;25.85;33.52;99838.09;230096;1231;139100;-60
2022/05/09 14:05:29;;;;;;;5.20;2.10;;;;;;;26.17;33.16;99833.67;229685;1232;138847;-60
2022/05/09 14:10:42;;;;;;;5.90;2.10;;;;;;;26.44;32.67;99827.33;228823;1232;139131;-60
2022/05/09 14:16:00;;;;;;;7.90;1.80;;;;;;;26.46;32.45;99826.03;229351;1232;139103;-61
2022/05/09 14:21:10;;;;;;;5.30;1.90;;;;;;;26.46;32.18;99825.83;229698;1231;140566;-60
2022/05/09 14:32:43;;;;;;;4.40;1.90;;;;;;;26.39;31.89;99816.74;229780;1231;138902;-60
2022/05/09 14:37:53;;;;;;;5.00;2.30;;;;;;;26.32;31.39;99819.59;228639;1233;140251;-59
2022/05/09 14:43:27;;;;;;;8.10;2.50;;;;;;;26.00;31.18;99812.92;228909;1232;139286;-58
2022/05/09 14:48:42;;;;;;;9.10;2.30;;;;;;;25.60;31.03;99809.00;229469;1232;139395;-59
2022/05/09 14:53:52;;;;;;;37.60;24.00;;;;;;;25.32;31.20;99807.19;228827;1232;141204;-61
2022/05/09 14:59:24;;;;;;;11.70;3.30;;;;;;;25.14;31.45;99800.80;228869;1231;140166;-59
2022/05/09 15:04:29;;;;;;;7.60;2.90;;;;;;;24.92;31.56;99801.34;230048;1232;138596;-58
2022/05/09 15:09:32;;;;;;;5.60;2.70;;;;;;;24.72;31.67;99801.01;229152;1231;139559;-59
2022/05/09 15:14:35;;;;;;;4.00;2.20;;;;;;;24.53;31.91;99799.98;229851;1232;139139;-59
2022/05/09 15:19:42;;;;;;;7.10;2.10;;;;;;;24.38;32.22;99801.79;229729;1232;139070;-60
2022/05/09 15:24:46;;;;;;;6.30;2.00;;;;;;;24.17;32.31;99800.75;229481;1230;138525;-60
2022/05/09 15:29:55;;;;;;;5.50;2.80;;;;;;;24.00;32.49;99805.27;230302;1231;138939;-60
2022/05/09 15:35:04;;;;;;;5.80;2.30;;;;;;;23.86;32.62;99801.35;229463;1231;139172;-58
2022/05/09 15:40:13;;;;;;;5.70;2.30;;;;;;;23.74;32.73;99794.13;230420;1232;138878;-60
2022/05/09 15:45:20;;;;;;;5.30;2.40;;;;;;;23.68;32.78;99791.31;229208;1233;138916;-59
2022/05/09 15:50:44;;;;;;;47.30;39.10;;;;;;;23.71;32.74;99791.81;229088;1231;138783;-59
2022/05/09 15:55:54;;;;;;;13.90;9.20;;;;;;;23.74;32.81;99783.23;229244;1232;139204;-59
2022/05/09 16:01:16;;;;;;;8.10;4.40;;;;;;;23.79;32.61;99786.83;229792;1232;139682;-59
2022/05/09 16:12:06;;;;;;;5.60;2.40;;;;;;;23.84;32.62;99782.50;229204;1232;138936;-59
2022/05/09 16:17:22;;;;;;;5.30;2.60;;;;;;;23.81;32.65;99784.05;228626;1231;139411;-59
2022/05/09 16:22:39;;;;;;;37.50;20.80;;;;;;;23.77;32.53;99785.06;228600;1232;140187;-60
2022/05/09 16:27:49;;;;;;;13.60;7.60;;;;;;;23.76;32.64;99786.04;230271;1232;138985;-60
2022/05/09 16:33:14;;;;;;;7.10;4.20;;;;;;;23.73;32.62;99787.79;229480;1231;138292;-60
2022/05/09 16:38:39;;;;;;;6.40;2.40;;;;;;;23.65;32.74;99793.54;229339;1232;138510;-60
2022/05/09 16:43:46;;;;;;;3.60;2.10;;;;;;;23.64;32.60;99790.19;228863;1232;138993;-60
2022/05/09 16:49:05;;;;;;;4.60;2.00;;;;;;;23.59;32.64;99789.98;229798;1232;138541;-59
2022/05/09 16:54:18;;;;;;;5.20;2.30;;;;;;;23.54;32.57;99789.63;229563;1231;139763;-60
2022/05/09 16:59:23;;;;;;;5.90;2.20;;;;;;;23.50;32.55;99785.21;229310;1232;138700;-60
2022/05/09 17:04:32;;;;;;;7.70;2.40;;;;;;;23.41;32.56;99787.17;230135;1233;139235;-62
2022/05/09 17:09:47;;;;;;;4.60;2.40;;;;;;;23.29;32.72;99788.02;229652;1232;139198;-61
2022/05/09 17:14:56;;;;;;;8.70;2.30;;;;;;;23.24;32.68;99790.36;229185;1232;139583;-60
2022/05/09 17:20:11;;;;;;;8.90;2.60;;;;;;;23.20;32.70;99791.00;229673;1232;139851;-61
2022/05/09 17:25:31;;;;;;;5.70;2.90;;;;;;;23.12;32.84;99797.55;229013;1232;138614;-60
2022/05/09 17:30:43;;;;;;;180.80;135.10;;;;;;;23.05;33.05;99801.60;229357;1232;139323;-59
2022/05/09 17:41:34;;;;;;;9.10;3.60;;;;;;;22.81;33.17;99798.17;229804;1232;139064;-59
2022/05/09 17:46:47;;;;;;;7.30;3.70;;;;;;;22.62;33.34;99800.63;229716;1232;139724;-60
2022/05/09 17:51:56;;;;;;;6.60;3.40;;;;;;;22.43;33.63;99809.40;229024;1232;144050;-59
2022/05/09 17:57:10;;;;;;;9.90;3.50;;;;;;;22.28;33.82;99814.65;229320;1232;139776;-59
2022/05/09 18:02:24;;;;;;;8.50;3.60;;;;;;;22.13;34.22;99821.38;229439;1232;140010;-61
2022/05/09 18:07:28;;;;;;;6.20;3.60;;;;;;;21.94;34.41;99819.79;230299;1232;138358;-58
2022/05/09 18:12:33;;;;;;;9.80;3.60;;;;;;;21.72;34.76;99826.95;230159;1232;139512;-60
2022/05/09 18:18:12;;;;;;;6.50;3.00;;;;;;;21.50;35.07;99827.24;229595;1232;142427;-59
2022/05/09 18:23:18;;;;;;;77.40;64.60;;;;;;;21.33;35.55;99833.77;229534;1231;138967;-59
2022/05/09 18:28:25;;;;;;;52.00;40.50;;;;;;;21.30;35.89;99845.02;229657;1232;141855;-59
2022/05/09 18:33:37;;;;;;;6.40;4.00;;;;;;;21.39;37.03;99843.07;229809;1232;139089;-59
2022/05/09 18:38:50;;;;;;;12.30;3.60;;;;;;;21.47;36.88;99840.89;229529;1231;139337;-59
2022/05/09 18:43:58;;;;;;;7.50;3.20;;;;;;;21.25;36.43;99854.33;228906;1232;139279;-60
2022/05/09 18:54:42;;;;;;;9.10;3.70;;;;;;;20.77;36.71;99857.30;228971;1233;139676;-58
2022/05/09 18:59:56;;;;;;;15.60;9.90;;;;;;;20.57;37.09;99862.01;229698;1232;139450;-57
2022/05/09 19:05:06;;;;;;;66.00;53.60;;;;;;;20.46;37.23;99860.81;228508;1232;139921;-59
2022/05/09 19:10:30;;;;;;;11.30;4.40;;;;;;;20.48;37.26;99868.40;228983;1233;139085;-59
2022/05/09 19:15:44;;;;;;;9.60;3.90;;;;;;;20.42;37.24;99873.10;229699;1232;141742;-58
2022/05/09 19:20:51;;;;;;;9.20;3.70;;;;;;;20.32;37.15;99878.30;230233;1232;139542;-60
2022/05/09 19:26:07;;;;;;;8.70;4.20;;;;;;;20.23;37.17;99874.05;229497;1232;139449;-61
2022/05/09 19:31:21;;;;;;;10.40;3.60;;;;;;;20.15;37.19;99877.52;229520;1232;139577;-61
2022/05/09 19:36:27;;;;;;;8.00;4.10;;;;;;;20.03;37.06;99878.84;229477;1232;139118;-59
2022/05/09 19:41:40;;;;;;;8.40;3.30;;;;;;;19.95;37.18;99883.37;230121;1232;140180;-59
2022/05/09 19:46:54;;;;;;;26.70;20.40;;;;;;;19.87;37.42;99883.75;229063;1232;139717;-61
2022/05/09 19:57:37;;;;;;;8.30;3.90;;;;;;;19.86;37.58;99886.14;230238;1231;140073;-59
2022/05/09 20:02:44;;;;;;;9.00;3.30;;;;;;;19.79;37.45;99887.48;229157;1232;139852;-61
2022/05/09 20:07:51;;;;;;;8.70;3.20;;;;;;;19.66;37.54;99891.42;230270;1232;138397;-61
2022/05/09 20:12:57;;;;;;;8.70;3.50;;;;;;;19.51;37.52;99888.77;230284;1232;140641;-62
2022/05/09 20:18:00;;;;;;;9.00;3.30;;;;;;;19.36;37.80;99889.70;229764;1232;141362;-63
2022/05/09 20:23:09;;;;;;;9.90;3.20;;;;;;;19.22;38.00;99896.65;229303;1232;139897;-62
2022/05/09 20:33:54;;;;;;;11.30;3.40;;;;;;;18.87;38.24;99909.06;230079;1232;139634;-63
2022/05/09 20:39:11;;;;;;;5.90;3.20;;;;;;;18.70;38.54;99908.48;228406;1233;140352;-63
2022/05/09 20:44:23;;;;;;;7.50;3.80;;;;;;;18.59;38.84;99911.85;229101;1232;139818;-63
2022/05/09 20:49:32;;;;;;;7.30;3.20;;;;;;;18.51;38.61;99913.09;229759;1232;138587;-63
2022/05/09 20:54:41;;;;;;;4.50;3.00;;;;;;;18.40;38.81;99916.71;229097;1232;138866;-63
2022/05/09 20:59:45;;;;;;;9.40;3.10;;;;;;;18.30;39.08;99918.60;228988;1232;139745;-63
2022/05/09 21:04:57;;;;;;;6.60;2.90;;;;;;;18.14;39.31;99923.39;228861;1233;140346;-63
2022/05/09 21:10:08;;;;;;;8.60;3.20;;;;;;;18.04;39.37;99925.30;229501;1232;139767;-64
2022/05/09 21:15:13;;;;;;;6.70;2.90;;;;;;;17.93;39.59;99924.33;230098;1232;139400;-64
2022/05/09 21:20:22;;;;;;;6.00;3.10;;;;;;;17.82;39.61;99926.27;228434;1232;140438;-64
2022/05/09 21:25:34;;;;;;;5.50;2.90;;;;;;;17.74;39.78;99932.61;229938;1232;139992;-64
2022/05/09 21:30:43;;;;;;;7.00;3.10;;;;;;;17.67;39.84;99932.13;229508;1232;139398;-63
2022/05/09 21:35:59;;;;;;;7.00;3.60;;;;;;;17.53;39.92;99936.39;229605;1233;139596;-63
2022/05/09 21:41:15;;;;;;;8.80;3.50;;;;;;;17.45;40.18;99942.19;229074;1233;138697;-64
2022/05/09 21:46:22;;;;;;;8.50;3.50;;;;;;;17.36;40.15;99946.33;230062;1233;139784;-63
2022/05/09 21:51:29;;;;;;;6.50;3.40;;;;;;;17.25;40.20;99945.67;229807;1232;138714;-63
2022/05/09 21:56:37;;;;;;;5.50;2.90;;;;;;;17.17;40.19;99949.19;229350;1233;140417;-63
2022/05/09 22:01:45;;;;;;;6.90;2.70;;;;;;;17.11;40.26;99945.88;228954;1232;138871;-63
2022/05/09 22:06:58;;;;;;;4.70;2.60;;;;;;;17.04;40.11;99944.04;230034;1233;138422;-64
2022/05/09 22:12:06;;;;;;;5.50;2.70;;;;;;;17.03;40.24;99942.12;229818;1233;139705;-64
2022/05/09 22:17:13;;;;;;;7.40;2.80;;;;;;;16.95;40.36;99947.20;230114;1233;138979;-63
2022/05/09 22:22:30;;;;;;;6.20;2.90;;;;;;;16.88;40.60;99944.85;229922;1232;138843;-63
2022/05/09 22:27:39;;;;;;;5.00;3.30;;;;;;;16.85;40.89;99947.06;229631;1233;139983;-62
2022/05/09 22:32:51;;;;;;;9.40;3.00;;;;;;;16.77;40.83;99945.30;230310;1233;138833;-63
2022/05/09 22:38:00;;;;;;;6.30;3.20;;;;;;;16.68;40.82;99941.09;229593;1231;138844;-60
2022/05/09 22:43:06;;;;;;;5.80;2.90;;;;;;;16.58;41.03;99938.25;229216;1232;138517;-64
2022/05/09 22:48:14;;;;;;;6.80;3.00;;;;;;;16.44;41.11;99937.27;230246;1232;139135;-63
2022/05/09 22:53:24;;;;;;;5.70;2.90;;;;;;;16.35;41.29;99935.99;229903;1233;138780;-63
2022/05/09 22:58:50;;;;;;;4.70;2.80;;;;;;;16.30;41.52;99928.08;230326;1233;140630;-61
2022/05/09 23:04:00;;;;;;;5.20;2.80;;;;;;;16.26;41.61;99928.04;229710;1233;139463;-63
2022/05/09 23:09:14;;;;;;;6.50;2.60;;;;;;;16.21;41.32;99924.95;229208;1233;138673;-61
2022/05/09 23:14:32;;;;;;;9.50;3.20;;;;;;;16.18;41.42;99921.39;229336;1232;139329;-61
2022/05/09 23:19:37;;;;;;;5.00;3.00;;;;;;;16.14;41.45;99923.31;229137;1232;139225;-61
2022/05/09 23:24:43;;;;;;;7.20;3.10;;;;;;;16.09;41.50;99923.11;229809;1233;139296;-60
2022/05/09 23:29:59;;;;;;;8.20;2.80;;;;;;;16.02;41.56;99916.80;229763;1233;139202;-60
2022/05/09 23:35:09;;;;;;;4.40;2.30;;;;;;;15.97;41.76;99919.13;228856;1233;138803;-60
2022/05/09 23:40:14;;;;;;;4.70;2.50;;;;;;;15.93;41.89;99914.73;229632;1232;139021;-60
2022/05/09 23:45:21;;;;;;;6.20;2.80;;;;;;;15.86;42.04;99907.91;229464;1233;139467;-62
2022/05/09 23:50:42;;;;;;;4.70;2.70;;;;;;;15.81;42.13;99906.30;229758;1232;138257;-60
2022/05/09 23:55:48;;;;;;;4.50;2.50;;;;;;;15.73;42.04;99905.23;229824;1233;139528;-61
